Home > Products > Valid Products > MTR

000
SAUS43 KUNR 012357
MTR2WX
METAR K2WX 012356Z AUTO 30023G31KT 12/M14 A2971 RMK AO1 PK WND
30035/2311 SLP059 T01221139 10144 20111 51013





000
SAUS43 KUNR 012357
MTRD07
METAR KD07 012356Z AUTO 31019G27KT 13/M12 A2975 RMK AO1 PK WND
31032/2325 SLP071 T01331117 10167 20133 51016





000
SAUS43 KUNR 012257
MTRD07
METAR KD07 012256Z AUTO 30021G32KT 13/M11 A2973 RMK AO1 PK WND
30033/2212 SLP065 T01331111





000
SAUS43 KUNR 012157
MTR2WX
METAR K2WX 012156Z AUTO 30027G38KT 13/M13 A2969 RMK AO1 PK WND
30041/2105 SLP048 T01331128





000
SAUS43 KUNR 012157
MTRD07
METAR KD07 012156Z AUTO 31022G31KT 13/M08 A2972 RMK AO1 PK WND
30034/2115 SLP061 T01331078





000
SAUS43 KUNR 012058
MTRD07
METAR KD07 012056Z AUTO 31027G37KT 13/M08 A2970 RMK AO1 PK WND
29037/2049 SLP055 T01331078 53015





000
SAUS43 KUNR 012058
MTRD07
METAR KD07 012056Z AUTO 31027G37KT 13/M08 A2970 RMK AO1 PK WND
29037/2049 SLP055 T01331078 53015





000
SAUS43 KUNR 012057
MTR2WX
METAR K2WX 012056Z AUTO 29033G40KT 13/M09 A2967 RMK AO1 PK WND
29043/2008 SLP042 T01331094 51007





000
SAUS43 KUNR 012057
MTR2WX
METAR K2WX 012056Z AUTO 29033G40KT 13/M09 A2967 RMK AO1 PK WND
29043/2008 SLP042 T01331094 51007





000
SAUS43 KUNR 012002 COR
MTRD07
METAR KD07 011956Z AUTO 30026G36KT 16/M06 A2967 RMK AO1 PK WND
30038/1937 SLP044 T01611056





000
SAUS43 KUNR 012002 COR
MTRD07
METAR KD07 011956Z AUTO 30026G36KT 16/M06 A2967 RMK AO1 PK WND
30038/1937 SLP044 T01611056





000
SAUS43 KUNR 011959 COR
MTRD07
METAR KD07 011956Z AUTO 30026G36KT 16/M06 A2967 RMK AO1 PK WND
30038/1937 SLP044 T01611056





000
SAUS43 KUNR 011959 COR
MTRD07
METAR KD07 011956Z AUTO 30026G36KT 16/M06 A2967 RMK AO1 PK WND
30038/1937 SLP044 T01611056





000
SAUS43 KUNR 011958
MTRD07
METAR KD07 011956Z AUTO 30026G36KT 16/M06 A2967 RMK AO1 PK WND
30038/1937 SLP044 T01611056





000
SAUS43 KUNR 011958
MTRD07
METAR KD07 011956Z AUTO 30026G36KT 16/M06 A2967 RMK AO1 PK WND
30038/1937 SLP044 T01611056





000
SAUS43 KUNR 011957
MTR2WX
METAR K2WX 011956Z AUTO 29036G41KT 13/M09 A2966 RMK AO1 PK WND
31045/1920 SLP038 T01331089





000
SAUS43 KUNR 011857
MTRD07
METAR KD07 011856Z AUTO 31025G37KT 16/M04 A2966 RMK AO1 PK WND
31037/1853 SLP040 T01611044





000
SAUS43 KUNR 011857
MTR2WX
METAR K2WX 011856Z AUTO 29034G42KT 13/M08 A2966 RMK AO1 PK WND
28042/1849 SLP039 T01281078





000
SAUS43 KUNR 011758
MTRD07
METAR KD07 011756Z AUTO 32028G36KT 15/M04 A2965 RMK AO1 PK WND
31039/1726 SLP037 T01501039 10150 20117 51023





000
SAUS43 KUNR 011758
MTRD07
METAR KD07 011756Z AUTO 32028G36KT 15/M04 A2965 RMK AO1 PK WND
31039/1726 SLP037 T01501039 10150 20117 51023





000
SAUS43 KUNR 011757
MTR2WX
METAR K2WX 011756Z AUTO 30036G44KT 12/M06 A2964 RMK AO1 PK WND
31044/1747 SLP033 T01221056 10128 20094 51014





000
SAUS43 KUNR 011702 COR
MTRD07
METAR KD07 011656Z AUTO 32029G36KT 13/M01 A2963 RMK AO1 PK WND
31037/1606 SLP034 T01331011





000
SAUS43 KUNR 011700 COR
MTRD07
METAR KD07 011656Z AUTO 32029G36KT 13/M01 A2963 RMK AO1 PK WND
31037/1606 SLP034 T01331011





000
SAUS43 KUNR 011700 COR
MTRD07
METAR KD07 011656Z AUTO 32029G36KT 13/M01 A2963 RMK AO1 PK WND
31037/1606 SLP034 T01331011





000
SAUS43 KUNR 011658
MTRD07
METAR KD07 011656Z AUTO 32029G36KT 13/M01 A2963 RMK AO1 PK WND
31037/1606 SLP034 T01331011





000
SAUS43 KUNR 011657
MTR2WX
METAR K2WX 011656Z AUTO 30032G40KT 12/M05 A2963 RMK AO1 PK WND
30043/1642 SLP029 T01221050





000
SAUS43 KUNR 011657
MTR2WX
METAR K2WX 011656Z AUTO 30032G40KT 12/M05 A2963 RMK AO1 PK WND
30043/1642 SLP029 T01221050





000
SAUS43 KUNR 011602 COR
MTRD07
METAR KD07 011556Z AUTO 31030G35KT 13/01 A2961 RMK AO1 PK WND
32039/1543 SLP024 T01330011





000
SAUS43 KUNR 011600 COR
MTRD07
METAR KD07 011556Z AUTO 31030G35KT 13/01 A2961 RMK AO1 PK WND
32039/1543 SLP024 T01330011





000
SAUS43 KUNR 011600 COR
MTRD07
METAR KD07 011556Z AUTO 31030G35KT 13/01 A2961 RMK AO1 PK WND
32039/1543 SLP024 T01330011





000
SAUS43 KUNR 011557
MTRD07
METAR KD07 011556Z AUTO 31030G35KT 13/01 A2961 RMK AO1 PK WND
32039/1543 SLP024 T01330011





000
SAUS43 KUNR 011557
MTR2WX
METAR K2WX 011556Z AUTO 31032G39KT 12/M04 A2962 RMK AO1 PK WND
32041/1457 SLP025 T01171044





000
SAUS43 KUNR 011557
MTR2WX
METAR K2WX 011556Z AUTO 31032G39KT 12/M04 A2962 RMK AO1 PK WND
32041/1457 SLP025 T01171044





000
SAUS43 KUNR 011501 COR
MTRD07
METAR KD07 011456Z AUTO 32026G35KT 13/02 A2957 RMK AO1 PK WND
32035/1452 SLP011 T01330022 51036





000
SAUS43 KUNR 011501 COR
MTRD07
METAR KD07 011456Z AUTO 32026G35KT 13/02 A2957 RMK AO1 PK WND
32035/1452 SLP011 T01330022 51036





000
SAUS43 KUNR 011459 COR
MTRD07
METAR KD07 011456Z AUTO 32026G35KT 13/02 A2957 RMK AO1 PK WND
32035/1452 SLP011 T01330022 51036





000
SAUS43 KUNR 011457
MTR2WX
METAR K2WX 011456Z AUTO 31034G40KT 11/M01 A2960 RMK AO1 PK WND
31042/1410 SLP017 T01111006 53041





000
SAUS43 KUNR 011457
MTRD07
METAR KD07 011456Z AUTO 32026G35KT 13/02 A2957 RMK AO1 PK WND
32035/1452 SLP011 T01330022 51036





000
SAUS43 KUNR 011357
MTRD07
METAR KD07 011356Z AUTO 32024G36KT 12/03 A2953 RMK AO1 PK WND
32036/1347 SLP998 T01220033





000
SAUS43 KUNR 011258
MTRD07
METAR KD07 011256Z AUTO 32024G30KT 12/02 A2952 RMK AO1 PK WND
31035/1157 SLP990 T01170017





000
SAUS43 KUNR 011258
MTRD07
METAR KD07 011256Z AUTO 32024G30KT 12/02 A2952 RMK AO1 PK WND
31035/1157 SLP990 T01170017





000
SAUS43 KUNR 011257
MTR2WX
METAR K2WX 011256Z AUTO 31028G36KT 10/02 A2951 RMK AO1 PK WND
31044/1158 SLP980 T01000022





000
SAUS43 KUNR 011257
MTR2WX
METAR K2WX 011256Z AUTO 31028G36KT 10/02 A2951 RMK AO1 PK WND
31044/1158 SLP980 T01000022





000
SAUS43 KUNR 011202 COR
MTRD07
METAR KD07 011156Z AUTO 30024G32KT 16/M06 A2946 RMK AO1 PK WND
30032/1156 WSHFT 1103 PRESRR SLP963 T01561056 10178 20122 53006





000
SAUS43 KUNR 011202 COR
MTRD07
METAR KD07 011156Z AUTO 30024G32KT 16/M06 A2946 RMK AO1 PK WND
30032/1156 WSHFT 1103 PRESRR SLP963 T01561056 10178 20122 53006





000
SAUS43 KUNR 011200 COR
MTRD07
METAR KD07 011156Z AUTO 30024G32KT 16/M06 A2946 RMK AO1 PK WND
30032/1156 WSHFT 1103 PRESRR SLP963 T01561056 10178 20122 53006





000
SAUS43 KUNR 011200 COR
MTRD07
METAR KD07 011156Z AUTO 30024G32KT 16/M06 A2946 RMK AO1 PK WND
30032/1156 WSHFT 1103 PRESRR SLP963 T01561056 10178 20122 53006





000
SAUS43 KUNR 011158
MTRD07
METAR KD07 011156Z AUTO 30024G32KT 16/M06 A2946 RMK AO1 PK WND
30032/1156 WSHFT 1103 PRESRR SLP963 T01561056 10178 20122 53006





000
SAUS43 KUNR 011158
MTRD07
METAR KD07 011156Z AUTO 30024G32KT 16/M06 A2946 RMK AO1 PK WND
30032/1156 WSHFT 1103 PRESRR SLP963 T01561056 10178 20122 53006





000
SAUS43 KUNR 011157
MTR2WX
METAR K2WX 011156Z AUTO 31032G42KT 11/02 A2947 RMK AO1 PK WND
32047/1111 SLP962 T01060022 10156 20089 53021





000
SAUS43 KUNR 011157
MTR2WX
METAR K2WX 011156Z AUTO 31032G42KT 11/02 A2947 RMK AO1 PK WND
32047/1111 SLP962 T01060022 10156 20089 53021





000
SAUS43 KUNR 011124
MTRD07
SPECI KD07 011123Z AUTO 28014KT 17/M06 A2941 RMK AO1 WSHFT 1103
T01671056





000
SAUS43 KUNR 011057
MTR2WX
METAR K2WX 011056Z AUTO 32035G46KT 12/03 A2943 RMK AO1 PK WND
31047/1039 SLP947 T01220028





000
SAUS43 KUNR 011057
MTRD07
METAR KD07 011056Z AUTO 21010KT 16/M06 A2940 RMK AO1 SLP939
T01611061





000
SAUS43 KUNR 010958
MTRD07
METAR KD07 010956Z AUTO 19011KT 17/M06 A2941 RMK AO1 SLP944
T01671061





000
SAUS43 KUNR 010958
MTRD07
METAR KD07 010956Z AUTO 19011KT 17/M06 A2941 RMK AO1 SLP944
T01671061





000
SAUS43 KUNR 010957
MTR2WX
METAR K2WX 010956Z AUTO 31022KT 13/M02 A2942 RMK AO1 PK WND
30033/0939 SLP942 T01281022





000
SAUS43 KUNR 010857
MTR2WX
METAR K2WX 010856Z AUTO 27007KT 12/M03 A2940 RMK AO1 SLP935
T01221033 56017





000
SAUS43 KUNR 010857
MTR2WX
METAR K2WX 010856Z AUTO 27007KT 12/M03 A2940 RMK AO1 SLP935
T01221033 56017





000
SAUS43 KUNR 010857
MTRD07
METAR KD07 010856Z AUTO 18010KT 14/M06 A2944 RMK AO1 SLP955
T01391056 56033





000
SAUS43 KUNR 010857
MTRD07
METAR KD07 010856Z AUTO 18010KT 14/M06 A2944 RMK AO1 SLP955
T01391056 56033





000
SAUS43 KUNR 010757
MTR2WX
METAR K2WX 010756Z AUTO 19009KT 14/M04 A2941 RMK AO1 SLP937
T01441039





000
SAUS43 KUNR 010757
MTRD07
METAR KD07 010756Z AUTO 16013KT 13/M05 A2947 RMK AO1 SLP967
T01331050





000
SAUS43 KUNR 010757
MTR2WX
METAR K2WX 010756Z AUTO 19009KT 14/M04 A2941 RMK AO1 SLP937
T01441039





000
SAUS43 KUNR 010757
MTRD07
METAR KD07 010756Z AUTO 16013KT 13/M05 A2947 RMK AO1 SLP967
T01331050





000
SAUS43 KUNR 010658
MTRD07
METAR KD07 010656Z AUTO 16012KT 13/M04 A2951 RMK AO1 SLP980
T01331044 402720044





000
SAUS43 KUNR 010658
MTRD07
METAR KD07 010656Z AUTO 16012KT 13/M04 A2951 RMK AO1 SLP980
T01331044 402720044





000
SAUS43 KUNR 010658
MTR2WX
METAR K2WX 010656Z AUTO 17006KT 15/M04 A2942 RMK AO1 SLP940
T01501044 402720022





000
SAUS43 KUNR 010558
MTR2WX
METAR K2WX 010556Z AUTO 14006KT 14/M04 A2945 RMK AO1 SLP956
T01441039 10256 20133 58025





000
SAUS43 KUNR 010558
MTR2WX
METAR K2WX 010556Z AUTO 14006KT 14/M04 A2945 RMK AO1 SLP956
T01441039 10256 20133 58025





000
SAUS43 KUNR 010557
MTRD07
METAR KD07 010556Z AUTO 16013KT 13/M06 A2954 RMK AO1 SLP994
T01331056 10228 20128 57023





000
SAUS43 KUNR 010557
MTRD07
METAR KD07 010556Z AUTO 16013KT 13/M06 A2954 RMK AO1 SLP994
T01331056 10228 20128 57023





000
SAUS43 KUNR 010458
MTR2WX
METAR K2WX 010456Z AUTO 15006KT 14/M04 A2949 RMK AO1 SLP970
T01441039





000
SAUS43 KUNR 010458
MTR2WX
METAR K2WX 010456Z AUTO 15006KT 14/M04 A2949 RMK AO1 SLP970
T01441039





000
SAUS43 KUNR 010457
MTRD07
METAR KD07 010456Z AUTO 16012KT 13/M06 A2956 RMK AO1 SLP005
T01331056





000
SAUS43 KUNR 010357
MTR2WX
METAR K2WX 010356Z AUTO 16006KT 15/M04 A2951 RMK AO1 SLP983
T01501044





000
SAUS43 KUNR 010257
MTR2WX
METAR K2WX 010256Z AUTO 13007KT 16/M03 A2953 RMK AO1 SLP996
T01561028 58015





000
SAUS43 KUNR 010257
MTRD07
METAR KD07 010256Z AUTO 16012KT 15/M06 A2961 RMK AO1 SLP026
T01501061 56014





000
SAUS43 KUNR 010257
MTRD07
METAR KD07 010256Z AUTO 16012KT 15/M06 A2961 RMK AO1 SLP026
T01501061 56014





000
SAUS43 KUNR 010257
MTR2WX
METAR K2WX 010256Z AUTO 13007KT 16/M03 A2953 RMK AO1 SLP996
T01561028 58015





000
SAUS43 KUNR 010158
MTRD07
METAR KD07 010156Z AUTO 16011KT 17/M05 A2963 RMK AO1 SLP035
T01671050





000
SAUS43 KUNR 010157
MTR2WX
METAR K2WX 010156Z AUTO 17008KT 18/M04 A2956 RMK AO1 SLP004
T01831039





000
SAUS43 KUNR 010058
MTR2WX
METAR K2WX 010056Z AUTO 17007KT 22/M05 A2957 RMK AO1 SLP009
T02171050





000
SAUS43 KUNR 010057
MTRD07
METAR KD07 010056Z AUTO 16009KT 19/M04 A2964 RMK AO1 SLP035
T01941039





000
SAUS43 KUNR 312358
MTR2WX
METAR K2WX 312356Z AUTO 21005KT 25/M04 A2958 RMK AO1 SLP008
T02501039 10272 20233 56021





000
SAUS43 KUNR 312358
MTR2WX
METAR K2WX 312356Z AUTO 21005KT 25/M04 A2958 RMK AO1 SLP008
T02501039 10272 20233 56021





000
SAUS43 KUNR 312257
MTRD07
METAR KD07 312256Z AUTO 24008KT 26/M08 A2967 RMK AO1 SLP042
T02561083





000
SAUS43 KUNR 312257
MTR2WX
METAR K2WX 312256Z AUTO 24010KT 24/M06 A2960 RMK AO1 SLP015
T02441061





000
SAUS43 KUNR 312257
MTR2WX
METAR K2WX 312256Z AUTO 24010KT 24/M06 A2960 RMK AO1 SLP015
T02441061





000
SAUS43 KUNR 312158
MTR2WX
METAR K2WX 312156Z AUTO 25015G21KT 26/M07 A2962 RMK AO1 SLP022
T02561067





000
SAUS43 KUNR 312157
MTRD07
METAR KD07 312156Z AUTO 25012G22KT 26/M08 A2969 RMK AO1 SLP050
T02561078





000
SAUS43 KUNR 312058
MTR2WX
METAR K2WX 312056Z AUTO 25014KT 26/M07 A2965 RMK AO1 SLP027
T02611067 58024





000
SAUS43 KUNR 312057
MTRD07
METAR KD07 312056Z AUTO 23011G18KT 26/M06 A2972 RMK AO1 SLP060
T02561061 58028





000
SAUS43 KUNR 311958
MTR2WX
METAR K2WX 311956Z AUTO 23017G25KT 26/M06 A2967 RMK AO1 SLP036
T02611056





000
SAUS43 KUNR 311958
MTR2WX
METAR K2WX 311956Z AUTO 23017G25KT 26/M06 A2967 RMK AO1 SLP036
T02611056





000
SAUS43 KUNR 311957
MTRD07
METAR KD07 311956Z AUTO 20014G22KT 25/M05 A2975 RMK AO1 SLP066
T02501050





000
SAUS43 KUNR 311857
MTR2WX
METAR K2WX 311856Z AUTO 24018KT 25/M03 A2971 RMK AO1 SLP049
T02501033





000
SAUS43 KUNR 311857
MTRD07
METAR KD07 311856Z AUTO 20012KT 24/M04 A2979 RMK AO1 SLP079
T02391039





000
SAUS43 KUNR 311857
MTRD07
METAR KD07 311856Z AUTO 20012KT 24/M04 A2979 RMK AO1 SLP079
T02391039





000
SAUS43 KUNR 311857
MTR2WX
METAR K2WX 311856Z AUTO 24018KT 25/M03 A2971 RMK AO1 SLP049
T02501033





000
SAUS43 KUNR 311757
MTR2WX
METAR K2WX 311756Z AUTO 22015G21KT 23/M02 A2973 RMK AO1 SLP058
T02331022 10239 20022 58022





000
SAUS43 KUNR 311757
MTRD07
METAR KD07 311756Z AUTO 20011KT 22/M02 A2981 RMK AO1 SLP090
T02221017 10228 20050 58021





000
SAUS43 KUNR 311658
MTRD07
METAR KD07 311656Z AUTO 18009KT 19/M01 A2983 RMK AO1 SLP101
T01941006





000
SAUS43 KUNR 311657
MTR2WX
METAR K2WX 311656Z AUTO 25004KT 20/00 A2976 RMK AO1 SLP069 T02000000





000
SAUS43 KUNR 311657
MTR2WX
METAR K2WX 311656Z AUTO 25004KT 20/00 A2976 RMK AO1 SLP069 T02000000





000
SAUS43 KUNR 311558
MTRD07
METAR KD07 311556Z AUTO 19008KT 15/M01 A2987 RMK AO1 SLP113
T01501011





000
SAUS43 KUNR 311557
MTR2WX
METAR K2WX 311556Z AUTO 10003KT 16/01 A2978 RMK AO1 SLP080 T01560011





000
SAUS43 KUNR 311457
MTR2WX
METAR K2WX 311456Z AUTO 13005KT 10/01 A2980 RMK AO1 SLP092 T01000011
58008





000
SAUS43 KUNR 311457
MTRD07
METAR KD07 311456Z AUTO 19009KT 12/M02 A2988 RMK AO1 SLP121
T01221017 56013





000
SAUS43 KUNR 311457
MTR2WX
METAR K2WX 311456Z AUTO 13005KT 10/01 A2980 RMK AO1 SLP092 T01000011
58008





000
SAUS43 KUNR 311457
MTRD07
METAR KD07 311456Z AUTO 19009KT 12/M02 A2988 RMK AO1 SLP121
T01221017 56013





000
SAUS43 KUNR 311357
MTRD07
METAR KD07 311356Z AUTO 17009KT 08/M02 A2988 RMK AO1 SLP125
T00781017





000
SAUS43 KUNR 311357
MTR2WX
METAR K2WX 311356Z AUTO 00000KT 07/00 A2981 RMK AO1 SLP099 T00720000





000
SAUS43 KUNR 311357
MTRD07
METAR KD07 311356Z AUTO 17009KT 08/M02 A2988 RMK AO1 SLP125
T00781017





000
SAUS43 KUNR 311357
MTR2WX
METAR K2WX 311356Z AUTO 00000KT 07/00 A2981 RMK AO1 SLP099 T00720000





000
SAUS43 KUNR 311258
MTR2WX
METAR K2WX 311256Z AUTO 00000KT 03/M02 A2982 RMK AO1 SLP104
T00281022





000
SAUS43 KUNR 311258
MTR2WX
METAR K2WX 311256Z AUTO 00000KT 03/M02 A2982 RMK AO1 SLP104
T00281022





000
SAUS43 KUNR 311257
MTRD07
METAR KD07 311256Z AUTO 15005KT 08/M03 A2991 RMK AO1 SLP131
T00781033





000
SAUS43 KUNR 311257
MTRD07
METAR KD07 311256Z AUTO 15005KT 08/M03 A2991 RMK AO1 SLP131
T00781033





000
SAUS43 KUNR 311158
MTR2WX
METAR K2WX 311156Z AUTO 14006KT 04/M02 A2983 RMK AO1 SLP100
T00441017 10089 20039 58015





000
SAUS43 KUNR 311158
MTR2WX
METAR K2WX 311156Z AUTO 14006KT 04/M02 A2983 RMK AO1 SLP100
T00441017 10089 20039 58015





000
SAUS43 KUNR 311157
MTRD07
METAR KD07 311156Z AUTO 23005KT 07/M03 A2992 RMK AO1 SLP132
T00721033 10111 20044 55010





000
SAUS43 KUNR 311157
MTRD07
METAR KD07 311156Z AUTO 23005KT 07/M03 A2992 RMK AO1 SLP132
T00721033 10111 20044 55010





000
SAUS43 KUNR 311058
MTR2WX
METAR K2WX 311056Z AUTO 00000KT 07/M02 A2985 RMK AO1 SLP104
T00671017





000
SAUS43 KUNR 311057
MTRD07
METAR KD07 311056Z AUTO 22007KT 06/M03 A2991 RMK AO1 SLP131
T00611033





000
SAUS43 KUNR 311057
MTRD07
METAR KD07 311056Z AUTO 22007KT 06/M03 A2991 RMK AO1 SLP131
T00611033





000
SAUS43 KUNR 310957
MTRD07
METAR KD07 310956Z AUTO 21007KT 05/M03 A2994 RMK AO1 SLP139
T00501033





000
SAUS43 KUNR 310957
MTR2WX
METAR K2WX 310956Z AUTO 21003KT 05/M02 A2986 RMK AO1 SLP111
T00501017





000
SAUS43 KUNR 310957
MTRD07
METAR KD07 310956Z AUTO 21007KT 05/M03 A2994 RMK AO1 SLP139
T00501033





000
SAUS43 KUNR 310957
MTR2WX
METAR K2WX 310956Z AUTO 21003KT 05/M02 A2986 RMK AO1 SLP111
T00501017





000
SAUS43 KUNR 310857
MTR2WX
METAR K2WX 310856Z AUTO 23003KT 08/M02 A2988 RMK AO1 SLP112
T00781017 58013





000
SAUS43 KUNR 310857
MTR2WX
METAR K2WX 310856Z AUTO 23003KT 08/M02 A2988 RMK AO1 SLP112
T00781017 58013





000
SAUS43 KUNR 310857
MTRD07
METAR KD07 310856Z AUTO 24004KT 07/M04 A2995 RMK AO1 SLP142
T00671039 56007





000
SAUS43 KUNR 310857
MTRD07
METAR KD07 310856Z AUTO 24004KT 07/M04 A2995 RMK AO1 SLP142
T00671039 56007





000
SAUS43 KUNR 310758
MTRD07
METAR KD07 310756Z AUTO 21004KT 09/M04 A2996 RMK AO1 SLP142
T00891039





000
SAUS43 KUNR 310757
MTR2WX
METAR K2WX 310756Z AUTO 25003KT 07/M02 A2990 RMK AO1 SLP121
T00721017





000
SAUS43 KUNR 310658
MTR2WX
METAR K2WX 310656Z AUTO 26005KT 07/M02 A2991 RMK AO1 SLP125
T00721017 402000022





000
SAUS43 KUNR 310658
MTR2WX
METAR K2WX 310656Z AUTO 26005KT 07/M02 A2991 RMK AO1 SLP125
T00721017 402000022





000
SAUS43 KUNR 310657
MTRD07
METAR KD07 310656Z AUTO 24003KT 11/M04 A2996 RMK AO1 SLP144
T01061039 402170039





000
SAUS43 KUNR 310657
MTRD07
METAR KD07 310656Z AUTO 24003KT 11/M04 A2996 RMK AO1 SLP144
T01061039 402170039





000
SAUS43 KUNR 310558
MTR2WX
METAR K2WX 310556Z AUTO 22005KT 07/M01 A2992 RMK AO1 SLP129
T00721011 10189 20072 56009





000
SAUS43 KUNR 310558
MTRD07
METAR KD07 310556Z AUTO 31005KT 10/M04 A2997 RMK AO1 SLP149
T01001039 10194 20094 56007





000
SAUS43 KUNR 310558
MTR2WX
METAR K2WX 310556Z AUTO 22005KT 07/M01 A2992 RMK AO1 SLP129
T00721011 10189 20072 56009





000
SAUS43 KUNR 310558
MTRD07
METAR KD07 310556Z AUTO 31005KT 10/M04 A2997 RMK AO1 SLP149
T01001039 10194 20094 56007





000
SAUS43 KUNR 310457
MTR2WX
METAR K2WX 310456Z AUTO 25006KT 08/M01 A2993 RMK AO1 SLP134
T00831011





000
SAUS43 KUNR 310457
MTRD07
METAR KD07 310456Z AUTO 27004KT 11/M04 A2998 RMK AO1 SLP153
T01061039





000
SAUS43 KUNR 310457
MTRD07
METAR KD07 310456Z AUTO 27004KT 11/M04 A2998 RMK AO1 SLP153
T01061039





000
SAUS43 KUNR 310457
MTR2WX
METAR K2WX 310456Z AUTO 25006KT 08/M01 A2993 RMK AO1 SLP134
T00831011





000
SAUS43 KUNR 310358
MTR2WX
METAR K2WX 310356Z AUTO 29003KT 09/M02 A2993 RMK AO1 SLP135
T00941017





000
SAUS43 KUNR 310357
MTRD07
METAR KD07 310356Z AUTO 23003KT 12/M03 A2999 RMK AO1 SLP156
T01221033





000
SAUS43 KUNR 310258
MTR2WX
METAR K2WX 310256Z AUTO 31006KT 12/M02 A2995 RMK AO1 SLP141
T01171022 53005





000
SAUS43 KUNR 310258
MTRD07
METAR KD07 310256Z AUTO 31004KT 12/M03 A2999 RMK AO1 SLP162
T01221033 53010





000
SAUS43 KUNR 310258
MTRD07
METAR KD07 310256Z AUTO 31004KT 12/M03 A2999 RMK AO1 SLP162
T01221033 53010





000
SAUS43 KUNR 310258
MTR2WX
METAR K2WX 310256Z AUTO 31006KT 12/M02 A2995 RMK AO1 SLP141
T01171022 53005





000
SAUS43 KUNR 310157
MTR2WX
METAR K2WX 310156Z AUTO 31010KT 13/M02 A2994 RMK AO1 SLP144
T01281022





000
SAUS43 KUNR 310157
MTRD07
METAR KD07 310156Z AUTO 34003KT 14/M03 A2998 RMK AO1 SLP157
T01391033





000
SAUS43 KUNR 310157
MTRD07
METAR KD07 310156Z AUTO 34003KT 14/M03 A2998 RMK AO1 SLP157
T01391033





000
SAUS43 KUNR 310157
MTR2WX
METAR K2WX 310156Z AUTO 31010KT 13/M02 A2994 RMK AO1 SLP144
T01281022





000
SAUS43 KUNR 310057
MTRD07
METAR KD07 310056Z AUTO 33009KT 16/M03 A2997 RMK AO1 SLP153
T01611028





000
SAUS43 KUNR 310057
MTR2WX
METAR K2WX 310056Z AUTO 30010KT 16/M02 A2993 RMK AO1 SLP141
T01611022





000
SAUS43 KUNR 310057
MTRD07
METAR KD07 310056Z AUTO 33009KT 16/M03 A2997 RMK AO1 SLP153
T01611028





000
SAUS43 KUNR 310057
MTR2WX
METAR K2WX 310056Z AUTO 30010KT 16/M02 A2993 RMK AO1 SLP141
T01611022





000
SAUS43 KUNR 302357
MTR2WX
METAR K2WX 302356Z AUTO 30015KT 19/M04 A2993 RMK AO1 PK WND
30027/2326 SLP134 T01891039 10200 20178 56004





000
SAUS43 KUNR 302357
MTRD07
METAR KD07 302356Z AUTO 32015G24KT 19/M04 A2996 RMK AO1 SLP148
T01891044 10217 20183 53000





000
SAUS43 KUNR 302357
MTRD07
METAR KD07 302356Z AUTO 32015G24KT 19/M04 A2996 RMK AO1 SLP148
T01891044 10217 20183 53000





000
SAUS43 KUNR 302357
MTR2WX
METAR K2WX 302356Z AUTO 30015KT 19/M04 A2993 RMK AO1 PK WND
30027/2326 SLP134 T01891039 10200 20178 56004





000
SAUS43 KUNR 302257
MTRD07
METAR KD07 302256Z AUTO 32019G25KT 21/M04 A2995 RMK AO1 SLP146
T02061039





000
SAUS43 KUNR 302257
MTR2WX
METAR K2WX 302256Z AUTO 31017G27KT 19/M04 A2993 RMK AO1 PK WND
29033/2158 SLP136 T01941039





000
SAUS43 KUNR 302257
MTR2WX
METAR K2WX 302256Z AUTO 31017G27KT 19/M04 A2993 RMK AO1 PK WND
29033/2158 SLP136 T01941039





000
SAUS43 KUNR 302257
MTRD07
METAR KD07 302256Z AUTO 32019G25KT 21/M04 A2995 RMK AO1 SLP146
T02061039





000
SAUS43 KUNR 302157
MTRD07
METAR KD07 302156Z AUTO 30017G24KT 21/M03 A2996 RMK AO1 PK WND
35030/2106 SLP147 T02111028





000
SAUS43 KUNR 302157
MTR2WX
METAR K2WX 302156Z AUTO 30018G26KT 19/M04 A2994 RMK AO1 PK WND
31033/2111 SLP138 T01891039





000
SAUS43 KUNR 302057
MTR2WX
METAR K2WX 302056Z AUTO 31019G34KT 20/M03 A2994 RMK AO1 PK WND
33034/2047 SLP139 T02001033 58004





000
SAUS43 KUNR 302057
MTRD07
METAR KD07 302056Z AUTO 31022G28KT 21/M03 A2996 RMK AO1 PK WND
31031/2018 SLP147 T02111033 58005





000
SAUS43 KUNR 302057
MTRD07
METAR KD07 302056Z AUTO 31022G28KT 21/M03 A2996 RMK AO1 PK WND
31031/2018 SLP147 T02111033 58005





000
SAUS43 KUNR 302057
MTR2WX
METAR K2WX 302056Z AUTO 31019G34KT 20/M03 A2994 RMK AO1 PK WND
33034/2047 SLP139 T02001033 58004





000
SAUS43 KUNR 301957
MTRD07
METAR KD07 301956Z AUTO 30020G31KT 21/M04 A2997 RMK AO1 PK WND
30031/1914 SLP152 T02061044





000
SAUS43 KUNR 301957
MTR2WX
METAR K2WX 301956Z AUTO 32022G26KT 19/M03 A2994 RMK AO1 PK WND
31033/1857 SLP140 T01891028





000
SAUS43 KUNR 301858
MTRD07
METAR KD07 301856Z AUTO 30023G30KT 20/M03 A2998 RMK AO1 PK WND
28033/1803 SLP155 T02001033





000
SAUS43 KUNR 301858
MTRD07
METAR KD07 301856Z AUTO 30023G30KT 20/M03 A2998 RMK AO1 PK WND
28033/1803 SLP155 T02001033





000
SAUS43 KUNR 301857
MTR2WX
METAR K2WX 301856Z AUTO 30023G31KT 19/M02 A2996 RMK AO1 PK WND
29033/1806 SLP145 T01891022





000
SAUS43 KUNR 301857
MTR2WX
METAR K2WX 301856Z AUTO 30023G31KT 19/M02 A2996 RMK AO1 PK WND
29033/1806 SLP145 T01891022





000
SAUS43 KUNR 301757
MTRD07
METAR KD07 301756Z AUTO 31021G27KT 18/M02 A2998 RMK AO1 PK WND
30029/1707 SLP156 T01831017 10183 20072 50001





000
SAUS43 KUNR 301757
MTR2WX
METAR K2WX 301756Z AUTO 31023G29KT 18/M02 A2995 RMK AO1 PK WND
29034/1735 SLP144 T01781017 10178 20033 50001





000
SAUS43 KUNR 301757
MTRD07
METAR KD07 301756Z AUTO 31021G27KT 18/M02 A2998 RMK AO1 PK WND
30029/1707 SLP156 T01831017 10183 20072 50001





000
SAUS43 KUNR 301757
MTR2WX
METAR K2WX 301756Z AUTO 31023G29KT 18/M02 A2995 RMK AO1 PK WND
29034/1735 SLP144 T01781017 10178 20033 50001





000
SAUS43 KUNR 301657
MTRD07
METAR KD07 301656Z AUTO 30021G28KT 16/M02 A2999 RMK AO1 PK WND
32031/1606 SLP158 T01561017





000
SAUS43 KUNR 301657
MTR2WX
METAR K2WX 301656Z AUTO 29025G33KT 16/M01 A2996 RMK AO1 PK WND
28033/1654 SLP148 T01611011





000
SAUS43 KUNR 301657
MTR2WX
METAR K2WX 301656Z AUTO 29025G33KT 16/M01 A2996 RMK AO1 PK WND
28033/1654 SLP148 T01611011





000
SAUS43 KUNR 301657
MTRD07
METAR KD07 301656Z AUTO 30021G28KT 16/M02 A2999 RMK AO1 PK WND
32031/1606 SLP158 T01561017





000
SAUS43 KUNR 301557
MTRD07
METAR KD07 301556Z AUTO 31017G25KT 14/M02 A2998 RMK AO1 SLP160
T01391017





000
SAUS43 KUNR 301458
MTRD07
METAR KD07 301456Z AUTO 28018G22KT 12/M02 A2998 RMK AO1 SLP157
T01221022 53015





000
SAUS43 KUNR 301457
MTR2WX
METAR K2WX 301456Z AUTO 27016KT 11/M01 A2995 RMK AO1 SLP146
T01111006 53013





000
SAUS43 KUNR 301357
MTR2WX
METAR K2WX 301356Z AUTO 27009KT 06/M01 A2993 RMK AO1 SLP145
T00611006





000
SAUS43 KUNR 301357
MTRD07
METAR KD07 301356Z AUTO 29014KT 09/M03 A2996 RMK AO1 SLP153
T00941028





000
SAUS43 KUNR 301357
MTR2WX
METAR K2WX 301356Z AUTO 27009KT 06/M01 A2993 RMK AO1 SLP145
T00611006





000
SAUS43 KUNR 301357
MTRD07
METAR KD07 301356Z AUTO 29014KT 09/M03 A2996 RMK AO1 SLP153
T00941028





000
SAUS43 KUNR 301257
MTR2WX
METAR K2WX 301256Z AUTO 27009KT 04/M02 A2992 RMK AO1 SLP139
T00391022





000
SAUS43 KUNR 301257
MTRD07
METAR KD07 301256Z AUTO 29015KT 08/M04 A2994 RMK AO1 SLP147
T00781039





000
SAUS43 KUNR 301158
MTRD07
METAR KD07 301156Z AUTO 28014KT 08/M04 A2993 RMK AO1 SLP140
T00781039 10078 20039 55002





000
SAUS43 KUNR 301158
MTRD07
METAR KD07 301156Z AUTO 28014KT 08/M04 A2993 RMK AO1 SLP140
T00781039 10078 20039 55002





000
SAUS43 KUNR 301157
MTR2WX
METAR K2WX 301156Z AUTO 30012KT 05/M02 A2991 RMK AO1 SLP131
T00501022 10061 20022 53005





000
SAUS43 KUNR 301157
MTR2WX
METAR K2WX 301156Z AUTO 30012KT 05/M02 A2991 RMK AO1 SLP131
T00501022 10061 20022 53005





000
SAUS43 KUNR 301057
MTR2WX
METAR K2WX 301056Z AUTO 28012KT 03/M03 A2990 RMK AO1 SLP129
T00281028





000
SAUS43 KUNR 301057
MTRD07
METAR KD07 301056Z AUTO 26007KT 05/M03 A2993 RMK AO1 SLP141
T00501033





000
SAUS43 KUNR 301057
MTR2WX
METAR K2WX 301056Z AUTO 28012KT 03/M03 A2990 RMK AO1 SLP129
T00281028





000
SAUS43 KUNR 301057
MTRD07
METAR KD07 301056Z AUTO 26007KT 05/M03 A2993 RMK AO1 SLP141
T00501033





000
SAUS43 KUNR 300958
MTR2WX
METAR K2WX 300956Z AUTO 28012KT 04/M03 A2989 RMK AO1 SLP124
T00391028





000
SAUS43 KUNR 300857
MTR2WX
METAR K2WX 300856Z AUTO 28010KT 04/M03 A2989 RMK AO1 SLP125
T00441028 58010





000
SAUS43 KUNR 300857
MTRD07
METAR KD07 300856Z AUTO 21011KT 07/M03 A2994 RMK AO1 SLP144
T00671033 58019





000
SAUS43 KUNR 300857
MTR2WX
METAR K2WX 300856Z AUTO 28010KT 04/M03 A2989 RMK AO1 SLP125
T00441028 58010





000
SAUS43 KUNR 300857
MTRD07
METAR KD07 300856Z AUTO 21011KT 07/M03 A2994 RMK AO1 SLP144
T00671033 58019





000
SAUS43 KUNR 300758
MTRD07
METAR KD07 300756Z AUTO 22008KT 05/M04 A2997 RMK AO1 SLP156
T00501039





000
SAUS43 KUNR 300758
MTRD07
METAR KD07 300756Z AUTO 22008KT 05/M04 A2997 RMK AO1 SLP156
T00501039





000
SAUS43 KUNR 300757
MTR2WX
METAR K2WX 300756Z AUTO 28007KT 06/M03 A2991 RMK AO1 SLP132
T00561033





000
SAUS43 KUNR 300757
MTR2WX
METAR K2WX 300756Z AUTO 28007KT 06/M03 A2991 RMK AO1 SLP132
T00561033





000
SAUS43 KUNR 300658
MTR2WX
METAR K2WX 300656Z AUTO 26007KT 04/M03 A2992 RMK AO1 SLP136
T00391028 401670017





000
SAUS43 KUNR 300658
MTRD07
METAR KD07 300656Z AUTO 22009KT 04/M03 A2998 RMK AO1 SLP162
T00441033 401720033





000
SAUS43 KUNR 300658
MTRD07
METAR KD07 300656Z AUTO 22009KT 04/M03 A2998 RMK AO1 SLP162
T00441033 401720033





000
SAUS43 KUNR 300658
MTR2WX
METAR K2WX 300656Z AUTO 26007KT 04/M03 A2992 RMK AO1 SLP136
T00391028 401670017





000
SAUS43 KUNR 300608 COR
MTRD07
METAR KD07 300556Z AUTO 19010KT 06/M03 A3000 RMK AO1 SLP169
T00561033 10156 20056 58002





000
SAUS43 KUNR 300608 COR
MTRD07
METAR KD07 300556Z AUTO 19010KT 06/M03 A3000 RMK AO1 SLP169
T00561033 10156 20056 58002





000
SAUS43 KUNR 300606 COR
MTRD07
METAR KD07 300556Z AUTO 19010KT 06/M03 A3000 RMK AO1 SLP169
T00561033 10156 20056 58002





000
SAUS43 KUNR 300606 COR
MTRD07
METAR KD07 300556Z AUTO 19010KT 06/M03 A3000 RMK AO1 SLP169
T00561033 10156 20056 58002





000
SAUS43 KUNR 300604 COR
MTRD07
METAR KD07 300556Z AUTO 19010KT 06/M03 A3000 RMK AO1 SLP169
T00561033 10156 20056 58002





000
SAUS43 KUNR 300604 COR
MTRD07
METAR KD07 300556Z AUTO 19010KT 06/M03 A3000 RMK AO1 SLP169
T00561033 10156 20056 58002





000
SAUS43 KUNR 300558
MTR2WX
METAR K2WX 300556Z AUTO 24006KT 04/M03 A2992 RMK AO1 SLP142
T00441028 10150 20044 58009





000
SAUS43 KUNR 300558
MTR2WX
METAR K2WX 300556Z AUTO 24006KT 04/M03 A2992 RMK AO1 SLP142
T00441028 10150 20044 58009





000
SAUS43 KUNR 300557
MTRD07
METAR KD07 300556Z AUTO 19010KT 06/M03 A3000 RMK AO1 SLP169
T00561033 10156 20056 58002





000
SAUS43 KUNR 300557
MTRD07
METAR KD07 300556Z AUTO 19010KT 06/M03 A3000 RMK AO1 SLP169
T00561033 10156 20056 58002





000
SAUS43 KUNR 300458
MTR2WX
METAR K2WX 300456Z AUTO 25005KT 06/M02 A2994 RMK AO1 SLP146
T00611022





000
SAUS43 KUNR 300458
MTR2WX
METAR K2WX 300456Z AUTO 25005KT 06/M02 A2994 RMK AO1 SLP146
T00611022





000
SAUS43 KUNR 300457
MTRD07
METAR KD07 300456Z AUTO 22005KT 08/M03 A3001 RMK AO1 SLP171
T00831033





000
SAUS43 KUNR 300457
MTRD07
METAR KD07 300456Z AUTO 22005KT 08/M03 A3001 RMK AO1 SLP171
T00831033





000
SAUS43 KUNR 300358
MTR2WX
METAR K2WX 300356Z AUTO 25004KT 08/M02 A2995 RMK AO1 SLP150
T00781022





000
SAUS43 KUNR 300358
MTR2WX
METAR K2WX 300356Z AUTO 25004KT 08/M02 A2995 RMK AO1 SLP150
T00781022





000
SAUS43 KUNR 300357
MTRD07
METAR KD07 300356Z AUTO 22005KT 08/M03 A3001 RMK AO1 SLP172
T00831033





000
SAUS43 KUNR 300258
MTR2WX
METAR K2WX 300256Z AUTO 28005KT 08/M02 A2995 RMK AO1 SLP155
T00831022 55005





000
SAUS43 KUNR 300257
MTRD07
METAR KD07 300256Z AUTO 26003KT 09/M04 A3000 RMK AO1 SLP172
T00941039 58006





000
SAUS43 KUNR 300158
MTR2WX
METAR K2WX 300156Z AUTO 29006KT 11/M03 A2995 RMK AO1 SLP153
T01061028





000
SAUS43 KUNR 300158
MTR2WX
METAR K2WX 300156Z AUTO 29006KT 11/M03 A2995 RMK AO1 SLP153
T01061028





000
SAUS43 KUNR 300157
MTRD07
METAR KD07 300156Z AUTO 29004KT 11/M04 A3001 RMK AO1 SLP176
T01111039





000
SAUS43 KUNR 300157
MTRD07
METAR KD07 300156Z AUTO 29004KT 11/M04 A3001 RMK AO1 SLP176
T01111039





000
SAUS43 KUNR 300057
MTRD07
METAR KD07 300056Z AUTO 29005KT 12/M03 A3002 RMK AO1 SLP178
T01171028





000
SAUS43 KUNR 300057
MTR2WX
METAR K2WX 300056Z AUTO 28009KT 12/M03 A2996 RMK AO1 SLP157
T01221028





000
SAUS43 KUNR 300057
MTRD07
METAR KD07 300056Z AUTO 29005KT 12/M03 A3002 RMK AO1 SLP178
T01171028





000
SAUS43 KUNR 300057
MTR2WX
METAR K2WX 300056Z AUTO 28009KT 12/M03 A2996 RMK AO1 SLP157
T01221028





    US Dept of Commerce
    National Oceanic and Atmospheric Administration
    National Weather Service
    1325 East West Highway
    Silver Spring, MD 20910
    Page Author: NWS Internet Services Team
Disclaimer
Information Quality
Credits
Glossary
Privacy Policy
Freedom of Information Act (FOIA)
About Us
Career Opportunities